sensor_id;sensor_type;location;lat;lon;timestamp;pressure;altitude;pressure_sealevel;temperature;humidity
47082;BME280;33066;49.296;14.470;2023-07-13T00:00:53;96711.06;;;27.78;36.67
47082;BME280;33066;49.296;14.470;2023-07-13T00:03:18;96711.79;;;27.98;36.47
47082;BME280;33066;49.296;14.470;2023-07-13T00:05:43;96711.38;;;27.73;36.29
47082;BME280;33066;49.296;14.470;2023-07-13T00:08:09;96709.05;;;28.00;36.07
47082;BME280;33066;49.296;14.470;2023-07-13T00:10:39;96707.96;;;28.00;36.15
47082;BME280;33066;49.296;14.470;2023-07-13T00:13:00;96699.46;;;27.76;36.60
47082;BME280;33066;49.296;14.470;2023-07-13T00:15:27;96692.94;;;27.98;36.90
47082;BME280;33066;49.296;14.470;2023-07-13T00:17:53;96684.45;;;27.96;37.12
47082;BME280;33066;49.296;14.470;2023-07-13T00:20:17;96677.73;;;27.93;37.33
47082;BME280;33066;49.296;14.470;2023-07-13T00:22:42;96670.93;;;27.89;37.56
47082;BME280;33066;49.296;14.470;2023-07-13T00:25:09;96664.48;;;27.85;37.67
47082;BME280;33066;49.296;14.470;2023-07-13T00:27:33;96667.28;;;27.60;37.85
47082;BME280;33066;49.296;14.470;2023-07-13T00:29:59;96670.18;;;27.84;38.06
47082;BME280;33066;49.296;14.470;2023-07-13T00:32:25;96671.33;;;27.79;38.15
47082;BME280;33066;49.296;14.470;2023-07-13T00:34:51;96675.91;;;27.75;38.03
47082;BME280;33066;49.296;14.470;2023-07-13T00:37:16;96677.66;;;27.73;37.43
47082;BME280;33066;49.296;14.470;2023-07-13T00:39:41;96675.15;;;27.74;37.38
47082;BME280;33066;49.296;14.470;2023-07-13T00:42:07;96675.68;;;27.74;37.47
47082;BME280;33066;49.296;14.470;2023-07-13T00:44:33;96675.82;;;27.53;37.22
47082;BME280;33066;49.296;14.470;2023-07-13T00:46:58;96673.59;;;27.58;37.03
47082;BME280;33066;49.296;14.470;2023-07-13T00:49:24;96661.82;;;27.63;36.88
47082;BME280;33066;49.296;14.470;2023-07-13T00:51:51;96659.62;;;27.62;37.18
47082;BME280;33066;49.296;14.470;2023-07-13T00:54:20;96652.41;;;27.82;37.56
47082;BME280;33066;49.296;14.470;2023-07-13T00:56:43;96641.48;;;27.77;37.77
47082;BME280;33066;49.296;14.470;2023-07-13T00:59:07;96639.37;;;27.51;38.04
47082;BME280;33066;49.296;14.470;2023-07-13T01:01:32;96634.65;;;27.48;38.22
47082;BME280;33066;49.296;14.470;2023-07-13T01:03:57;96636.77;;;27.43;38.13
47082;BME280;33066;49.296;14.470;2023-07-13T01:06:23;96636.44;;;27.39;37.67
47082;BME280;33066;49.296;14.470;2023-07-13T01:08:48;96636.57;;;27.63;37.41
47082;BME280;33066;49.296;14.470;2023-07-13T01:11:19;96642.00;;;27.59;37.66
47082;BME280;33066;49.296;14.470;2023-07-13T01:13:38;96640.32;;;27.61;37.42
47082;BME280;33066;49.296;14.470;2023-07-13T01:16:11;96642.07;;;27.38;37.28
47082;BME280;33066;49.296;14.470;2023-07-13T01:18:29;96639.69;;;27.62;37.48
47082;BME280;33066;49.296;14.470;2023-07-13T01:20:54;96637.96;;;27.57;37.96
47082;BME280;33066;49.296;14.470;2023-07-13T01:23:20;96632.72;;;27.57;37.96
47082;BME280;33066;49.296;14.470;2023-07-13T01:25:45;96636.09;;;27.53;38.09
47082;BME280;33066;49.296;14.470;2023-07-13T01:28:11;96632.85;;;27.75;38.03
47082;BME280;33066;49.296;14.470;2023-07-13T01:30:38;96630.65;;;27.47;37.97
47082;BME280;33066;49.296;14.470;2023-07-13T01:33:03;96632.47;;;27.41;37.87
47082;BME280;33066;49.296;14.470;2023-07-13T01:35:28;96634.48;;;27.37;37.58
47082;BME280;33066;49.296;14.470;2023-07-13T01:37:53;96639.22;;;27.37;37.52
47082;BME280;33066;49.296;14.470;2023-07-13T01:40:20;96645.09;;;27.34;37.47
47082;BME280;33066;49.296;14.470;2023-07-13T01:42:45;96644.75;;;27.17;37.57
47082;BME280;33066;49.296;14.470;2023-07-13T01:45:11;96645.69;;;27.17;37.58
47082;BME280;33066;49.296;14.470;2023-07-13T01:47:36;96649.29;;;27.46;37.39
47082;BME280;33066;49.296;14.470;2023-07-13T01:50:02;96649.54;;;27.23;37.15
47082;BME280;33066;49.296;14.470;2023-07-13T01:52:27;96654.19;;;27.28;37.16
47082;BME280;33066;49.296;14.470;2023-07-13T01:54:53;96660.76;;;27.31;37.19
47082;BME280;33066;49.296;14.470;2023-07-13T01:57:19;96659.31;;;27.32;37.59
47082;BME280;33066;49.296;14.470;2023-07-13T01:59:45;96656.48;;;27.30;37.44
47082;BME280;33066;49.296;14.470;2023-07-13T02:02:10;96657.24;;;27.31;37.65
47082;BME280;33066;49.296;14.470;2023-07-13T02:04:36;96658.43;;;27.31;37.72
47082;BME280;33066;49.296;14.470;2023-07-13T02:07:02;96664.00;;;27.32;37.59
47082;BME280;33066;49.296;14.470;2023-07-13T02:09:28;96670.91;;;27.27;37.83
47082;BME280;33066;49.296;14.470;2023-07-13T02:11:53;96674.07;;;26.99;37.70
47082;BME280;33066;49.296;14.470;2023-07-13T02:14:18;96677.44;;;27.16;37.56
47082;BME280;33066;49.296;14.470;2023-07-13T02:16:44;96675.05;;;27.18;37.51
47082;BME280;33066;49.296;14.470;2023-07-13T02:19:09;96675.87;;;27.21;37.37
47082;BME280;33066;49.296;14.470;2023-07-13T02:21:35;96678.38;;;27.37;36.99
47082;BME280;33066;49.296;14.470;2023-07-13T02:24:01;96677.32;;;27.07;37.04
47082;BME280;33066;49.296;14.470;2023-07-13T02:26:26;96675.78;;;27.08;36.97
47082;BME280;33066;49.296;14.470;2023-07-13T02:28:52;96676.29;;;27.08;37.20
47082;BME280;33066;49.296;14.470;2023-07-13T02:31:17;96681.16;;;26.87;38.10
47082;BME280;33066;49.296;14.470;2023-07-13T02:33:43;96682.56;;;27.13;38.33
47082;BME280;33066;49.296;14.470;2023-07-13T02:36:10;96681.91;;;27.32;38.45
47082;BME280;33066;49.296;14.470;2023-07-13T02:38:34;96683.30;;;27.07;38.79
47082;BME280;33066;49.296;14.470;2023-07-13T02:40:59;96686.23;;;27.01;39.06
47082;BME280;33066;49.296;14.470;2023-07-13T02:43:25;96682.82;;;27.18;39.25
47082;BME280;33066;49.296;14.470;2023-07-13T02:45:51;96677.32;;;27.15;39.26
47082;BME280;33066;49.296;14.470;2023-07-13T02:48:17;96680.16;;;27.13;39.22
47082;BME280;33066;49.296;14.470;2023-07-13T02:50:42;96682.79;;;26.87;38.97
47082;BME280;33066;49.296;14.470;2023-07-13T02:53:10;96682.33;;;26.87;38.59
47082;BME280;33066;49.296;14.470;2023-07-13T02:55:34;96684.15;;;27.11;38.77
47082;BME280;33066;49.296;14.470;2023-07-13T02:57:59;96686.72;;;26.83;39.09
47082;BME280;33066;49.296;14.470;2023-07-13T03:00:25;96682.75;;;26.80;38.69
47082;BME280;33066;49.296;14.470;2023-07-13T03:02:51;96683.96;;;26.81;38.66
47082;BME280;33066;49.296;14.470;2023-07-13T03:05:18;96684.36;;;26.81;38.55
47082;BME280;33066;49.296;14.470;2023-07-13T03:07:42;96686.51;;;27.11;38.16
47082;BME280;33066;49.296;14.470;2023-07-13T03:13:00;96693.76;;;26.99;37.23
47082;BME280;33066;49.296;14.470;2023-07-13T03:15:25;96695.94;;;26.97;37.20
47082;BME280;33066;49.296;14.470;2023-07-13T03:17:50;96700.57;;;26.80;37.22
47082;BME280;33066;49.296;14.470;2023-07-13T03:20:16;96701.56;;;26.90;37.21
47082;BME280;33066;49.296;14.470;2023-07-13T03:22:42;96697.42;;;26.53;37.52
47082;BME280;33066;49.296;14.470;2023-07-13T03:25:08;96700.53;;;26.19;37.83
47082;BME280;33066;49.296;14.470;2023-07-13T03:27:34;96704.22;;;26.42;37.96
47082;BME280;33066;49.296;14.470;2023-07-13T03:30:00;96706.28;;;26.34;38.10
47082;BME280;33066;49.296;14.470;2023-07-13T03:32:25;96706.62;;;26.19;37.97
47082;BME280;33066;49.296;14.470;2023-07-13T03:34:51;96709.51;;;26.26;37.94
47082;BME280;33066;49.296;14.470;2023-07-13T03:37:16;96705.56;;;26.30;37.88
47082;BME280;33066;49.296;14.470;2023-07-13T03:39:42;96704.94;;;26.43;37.86
47082;BME280;33066;49.296;14.470;2023-07-13T03:42:08;96702.83;;;26.58;37.80
47082;BME280;33066;49.296;14.470;2023-07-13T03:44:35;96704.70;;;26.71;38.12
47082;BME280;33066;49.296;14.470;2023-07-13T03:47:00;96704.66;;;26.77;38.41
47082;BME280;33066;49.296;14.470;2023-07-13T03:49:25;96709.48;;;26.82;37.96
47082;BME280;33066;49.296;14.470;2023-07-13T03:51:51;96711.65;;;26.83;37.52
47082;BME280;33066;49.296;14.470;2023-07-13T03:54:17;96712.12;;;26.88;37.37
47082;BME280;33066;49.296;14.470;2023-07-13T03:56:42;96714.54;;;26.70;37.34
47082;BME280;33066;49.296;14.470;2023-07-13T03:59:08;96715.76;;;26.39;37.40
47082;BME280;33066;49.296;14.470;2023-07-13T04:01:34;96717.21;;;26.88;37.36
47082;BME280;33066;49.296;14.470;2023-07-13T04:04:00;96720.84;;;26.53;37.44
47082;BME280;33066;49.296;14.470;2023-07-13T04:06:28;96719.48;;;26.66;37.59
47082;BME280;33066;49.296;14.470;2023-07-13T04:08:53;96721.35;;;26.39;37.65
47082;BME280;33066;49.296;14.470;2023-07-13T04:11:16;96724.51;;;26.09;37.81
47082;BME280;33066;49.296;14.470;2023-07-13T04:13:42;96725.70;;;26.37;37.83
47082;BME280;33066;49.296;14.470;2023-07-13T04:16:07;96726.60;;;26.38;37.76
47082;BME280;33066;49.296;14.470;2023-07-13T04:18:33;96724.47;;;26.08;37.81
47082;BME280;33066;49.296;14.470;2023-07-13T04:20:59;96728.12;;;26.37;37.75
47082;BME280;33066;49.296;14.470;2023-07-13T04:23:24;96731.48;;;26.55;37.69
47082;BME280;33066;49.296;14.470;2023-07-13T04:25:52;96731.16;;;26.34;37.59
47082;BME280;33066;49.296;14.470;2023-07-13T04:28:16;96731.74;;;26.76;37.52
47082;BME280;33066;49.296;14.470;2023-07-13T04:30:42;96731.29;;;27.09;37.30
47082;BME280;33066;49.296;14.470;2023-07-13T04:33:07;96732.97;;;27.22;37.20
47082;BME280;33066;49.296;14.470;2023-07-13T04:35:33;96736.76;;;26.84;37.03
47082;BME280;33066;49.296;14.470;2023-07-13T04:37:58;96734.98;;;26.83;36.88
47082;BME280;33066;49.296;14.470;2023-07-13T04:40:24;96733.76;;;27.00;36.99
47082;BME280;33066;49.296;14.470;2023-07-13T04:42:51;96733.84;;;27.06;37.00
47082;BME280;33066;49.296;14.470;2023-07-13T04:45:15;96735.08;;;26.71;37.11
47082;BME280;33066;49.296;14.470;2023-07-13T04:47:41;96735.14;;;26.51;37.19
47082;BME280;33066;49.296;14.470;2023-07-13T04:50:08;96734.84;;;26.54;37.38
47082;BME280;33066;49.296;14.470;2023-07-13T04:52:32;96740.62;;;26.65;37.49
47082;BME280;33066;49.296;14.470;2023-07-13T04:54:58;96737.44;;;26.68;37.21
47082;BME280;33066;49.296;14.470;2023-07-13T04:57:24;96735.75;;;26.79;37.05
47082;BME280;33066;49.296;14.470;2023-07-13T04:59:49;96728.99;;;26.81;37.00
47082;BME280;33066;49.296;14.470;2023-07-13T05:02:15;96723.90;;;26.82;36.98
47082;BME280;33066;49.296;14.470;2023-07-13T05:04:41;96724.72;;;26.58;36.96
47082;BME280;33066;49.296;14.470;2023-07-13T05:07:06;96729.56;;;26.89;36.65
47082;BME280;33066;49.296;14.470;2023-07-13T05:09:32;96726.77;;;26.78;36.83
47082;BME280;33066;49.296;14.470;2023-07-13T05:11:58;96729.08;;;26.73;36.48
47082;BME280;33066;49.296;14.470;2023-07-13T05:14:24;96733.15;;;26.92;36.42
47082;BME280;33066;49.296;14.470;2023-07-13T05:16:50;96739.75;;;27.26;36.38
47082;BME280;33066;49.296;14.470;2023-07-13T05:19:15;96741.80;;;26.96;36.23
47082;BME280;33066;49.296;14.470;2023-07-13T05:21:41;96740.24;;;27.08;36.03
47082;BME280;33066;49.296;14.470;2023-07-13T05:24:08;96742.84;;;27.38;35.77
47082;BME280;33066;49.296;14.470;2023-07-13T05:26:32;96744.79;;;27.09;35.60
47082;BME280;33066;49.296;14.470;2023-07-13T05:28:58;96749.11;;;27.41;35.79
47082;BME280;33066;49.296;14.470;2023-07-13T05:31:23;96747.33;;;27.04;35.81
47082;BME280;33066;49.296;14.470;2023-07-13T05:33:49;96750.29;;;27.07;35.74
47082;BME280;33066;49.296;14.470;2023-07-13T05:36:15;96752.93;;;27.20;35.70
47082;BME280;33066;49.296;14.470;2023-07-13T05:38:40;96756.02;;;27.12;36.03
47082;BME280;33066;49.296;14.470;2023-07-13T05:41:06;96761.09;;;26.99;36.08
47082;BME280;33066;49.296;14.470;2023-07-13T05:43:32;96766.59;;;26.75;36.14
47082;BME280;33066;49.296;14.470;2023-07-13T05:45:57;96765.35;;;26.94;36.05
47082;BME280;33066;49.296;14.470;2023-07-13T05:48:23;96765.12;;;26.79;35.98
47082;BME280;33066;49.296;14.470;2023-07-13T05:50:49;96761.00;;;27.15;35.95
47082;BME280;33066;49.296;14.470;2023-07-13T05:53:14;96764.29;;;26.85;35.73
47082;BME280;33066;49.296;14.470;2023-07-13T05:55:41;96764.58;;;27.15;35.63
47082;BME280;33066;49.296;14.470;2023-07-13T05:58:05;96764.62;;;27.03;35.51
47082;BME280;33066;49.296;14.470;2023-07-13T06:00:30;96765.52;;;27.36;34.74
47082;BME280;33066;49.296;14.470;2023-07-13T06:02:56;96762.96;;;27.35;34.74
47082;BME280;33066;49.296;14.470;2023-07-13T06:05:22;96766.45;;;27.32;34.49
47082;BME280;33066;49.296;14.470;2023-07-13T06:07:47;96765.46;;;27.41;34.60
47082;BME280;33066;49.296;14.470;2023-07-13T06:10:13;96764.65;;;27.27;34.20
47082;BME280;33066;49.296;14.470;2023-07-13T06:12:38;96771.77;;;27.34;34.29
47082;BME280;33066;49.296;14.470;2023-07-13T06:15:04;96772.97;;;27.09;34.23
47082;BME280;33066;49.296;14.470;2023-07-13T06:17:29;96771.70;;;26.09;33.61
47082;BME280;33066;49.296;14.470;2023-07-13T06:19:56;96773.47;;;28.00;32.92
47082;BME280;33066;49.296;14.470;2023-07-13T06:22:20;96769.49;;;27.59;33.23
47082;BME280;33066;49.296;14.470;2023-07-13T06:24:46;96769.24;;;27.58;33.36
47082;BME280;33066;49.296;14.470;2023-07-13T06:27:12;96776.74;;;27.36;33.47
47082;BME280;33066;49.296;14.470;2023-07-13T06:29:38;96776.50;;;27.31;33.49
47082;BME280;33066;49.296;14.470;2023-07-13T06:32:04;96775.52;;;27.43;33.28
47082;BME280;33066;49.296;14.470;2023-07-13T06:34:29;96773.03;;;27.59;33.25
47082;BME280;33066;49.296;14.470;2023-07-13T06:36:55;96773.13;;;27.65;32.89
47082;BME280;33066;49.296;14.470;2023-07-13T06:39:21;96770.61;;;27.73;32.92
47082;BME280;33066;49.296;14.470;2023-07-13T06:41:46;96771.91;;;27.72;32.73
47082;BME280;33066;49.296;14.470;2023-07-13T06:44:12;96767.56;;;27.76;32.71
47082;BME280;33066;49.296;14.470;2023-07-13T06:46:38;96764.83;;;27.73;32.57
47082;BME280;33066;49.296;14.470;2023-07-13T06:49:04;96768.72;;;27.90;32.49
47082;BME280;33066;49.296;14.470;2023-07-13T06:51:30;96770.20;;;28.04;32.27
47082;BME280;33066;49.296;14.470;2023-07-13T06:53:55;96770.34;;;28.13;31.23
47082;BME280;33066;49.296;14.470;2023-07-13T06:56:21;96771.71;;;27.73;30.76
47082;BME280;33066;49.296;14.470;2023-07-13T06:58:47;96772.81;;;27.97;30.83
47082;BME280;33066;49.296;14.470;2023-07-13T07:01:13;96774.82;;;28.00;31.00
47082;BME280;33066;49.296;14.470;2023-07-13T07:03:39;96772.68;;;27.83;30.34
47082;BME280;33066;49.296;14.470;2023-07-13T07:06:13;96773.11;;;27.58;30.51
47082;BME280;33066;49.296;14.470;2023-07-13T07:08:31;96777.03;;;27.74;30.69
47082;BME280;33066;49.296;14.470;2023-07-13T07:10:56;96782.45;;;27.50;30.38
47082;BME280;33066;49.296;14.470;2023-07-13T07:13:22;96785.74;;;27.43;30.43
47082;BME280;33066;49.296;14.470;2023-07-13T07:15:47;96781.39;;;27.61;30.53
47082;BME280;33066;49.296;14.470;2023-07-13T07:18:13;96785.47;;;27.77;30.44
47082;BME280;33066;49.296;14.470;2023-07-13T07:20:39;96789.28;;;28.13;30.27
47082;BME280;33066;49.296;14.470;2023-07-13T07:23:05;96789.22;;;27.97;30.01
47082;BME280;33066;49.296;14.470;2023-07-13T07:25:31;96789.07;;;27.73;30.00
47082;BME280;33066;49.296;14.470;2023-07-13T07:27:56;96790.23;;;28.14;30.24
47082;BME280;33066;49.296;14.470;2023-07-13T07:30:22;96790.53;;;28.43;29.96
47082;BME280;33066;49.296;14.470;2023-07-13T07:32:49;96790.90;;;28.20;30.12
47082;BME280;33066;49.296;14.470;2023-07-13T07:35:13;96790.78;;;28.33;29.67
47082;BME280;33066;49.296;14.470;2023-07-13T07:37:39;96790.46;;;28.71;29.51
47082;BME280;33066;49.296;14.470;2023-07-13T07:40:07;96789.65;;;28.46;29.12
47082;BME280;33066;49.296;14.470;2023-07-13T07:42:31;96793.61;;;28.49;29.12
47082;BME280;33066;49.296;14.470;2023-07-13T07:44:57;96792.68;;;28.53;28.62
47082;BME280;33066;49.296;14.470;2023-07-13T07:47:22;96792.63;;;28.52;27.66
47082;BME280;33066;49.296;14.470;2023-07-13T07:49:48;96789.46;;;28.59;27.81
47082;BME280;33066;49.296;14.470;2023-07-13T07:52:15;96800.74;;;28.64;27.52
47082;BME280;33066;49.296;14.470;2023-07-13T07:54:40;96812.47;;;28.60;27.68
47082;BME280;33066;49.296;14.470;2023-07-13T07:57:06;96800.07;;;28.82;27.92
47082;BME280;33066;49.296;14.470;2023-07-13T07:59:33;96800.09;;;28.58;27.90
47082;BME280;33066;49.296;14.470;2023-07-13T08:01:57;96797.91;;;28.44;27.79
47082;BME280;33066;49.296;14.470;2023-07-13T08:04:23;96799.85;;;28.09;28.05
47082;BME280;33066;49.296;14.470;2023-07-13T08:06:48;96795.65;;;28.70;28.32
47082;BME280;33066;49.296;14.470;2023-07-13T08:09:14;96794.42;;;28.62;28.29
47082;BME280;33066;49.296;14.470;2023-07-13T08:11:40;96791.35;;;28.63;27.88
47082;BME280;33066;49.296;14.470;2023-07-13T08:14:06;96789.35;;;29.04;27.34
47082;BME280;33066;49.296;14.470;2023-07-13T08:16:31;96791.31;;;28.75;27.25
47082;BME280;33066;49.296;14.470;2023-07-13T08:18:57;96797.78;;;28.78;26.74
47082;BME280;33066;49.296;14.470;2023-07-13T08:21:23;96797.53;;;28.74;26.94
47082;BME280;33066;49.296;14.470;2023-07-13T08:23:49;96795.24;;;29.05;26.86
47082;BME280;33066;49.296;14.470;2023-07-13T08:26:15;96796.46;;;28.88;26.77
47082;BME280;33066;49.296;14.470;2023-07-13T08:28:41;96799.94;;;29.09;26.82
47082;BME280;33066;49.296;14.470;2023-07-13T08:31:07;96798.43;;;29.17;26.36
47082;BME280;33066;49.296;14.470;2023-07-13T08:33:33;96805.66;;;29.26;26.28
47082;BME280;33066;49.296;14.470;2023-07-13T08:35:58;96803.65;;;29.30;26.39
47082;BME280;33066;49.296;14.470;2023-07-13T08:38:23;96804.72;;;29.29;26.31
47082;BME280;33066;49.296;14.470;2023-07-13T08:40:53;96817.72;;;29.72;26.03
47082;BME280;33066;49.296;14.470;2023-07-13T08:43:17;96823.76;;;29.44;26.30
47082;BME280;33066;49.296;14.470;2023-07-13T08:45:44;96820.39;;;29.62;25.75
47082;BME280;33066;49.296;14.470;2023-07-13T08:48:13;96819.02;;;29.97;25.75
47082;BME280;33066;49.296;14.470;2023-07-13T08:50:38;96822.56;;;30.09;23.93
47082;BME280;33066;49.296;14.470;2023-07-13T08:52:58;96822.16;;;29.45;23.89
47082;BME280;33066;49.296;14.470;2023-07-13T08:55:27;96832.94;;;29.48;23.86
47082;BME280;33066;49.296;14.470;2023-07-13T08:57:54;96827.61;;;29.46;24.04
47082;BME280;33066;49.296;14.470;2023-07-13T09:00:17;96832.20;;;29.62;23.68
47082;BME280;33066;49.296;14.470;2023-07-13T09:02:46;96835.46;;;29.63;23.64
47082;BME280;33066;49.296;14.470;2023-07-13T09:05:12;96831.21;;;29.51;23.58
47082;BME280;33066;49.296;14.470;2023-07-13T09:07:43;96833.83;;;29.41;23.99
47082;BME280;33066;49.296;14.470;2023-07-13T09:10:07;96839.34;;;29.52;24.29
47082;BME280;33066;49.296;14.470;2023-07-13T09:12:31;96836.98;;;29.73;24.31
47082;BME280;33066;49.296;14.470;2023-07-13T09:14:53;96846.49;;;29.72;23.90
47082;BME280;33066;49.296;14.470;2023-07-13T09:17:19;96846.01;;;29.86;22.49
47082;BME280;33066;49.296;14.470;2023-07-13T09:19:42;96845.33;;;29.40;22.67
47082;BME280;33066;49.296;14.470;2023-07-13T09:22:14;96846.57;;;29.64;23.14
47082;BME280;33066;49.296;14.470;2023-07-13T09:24:38;96842.83;;;29.54;23.36
47082;BME280;33066;49.296;14.470;2023-07-13T09:26:59;96845.25;;;29.47;23.88
47082;BME280;33066;49.296;14.470;2023-07-13T09:29:30;96850.64;;;29.61;23.47
47082;BME280;33066;49.296;14.470;2023-07-13T09:31:54;96846.20;;;29.49;23.56
47082;BME280;33066;49.296;14.470;2023-07-13T09:34:16;96854.21;;;29.78;23.68
47082;BME280;33066;49.296;14.470;2023-07-13T09:36:41;96850.11;;;29.60;23.28
47082;BME280;33066;49.296;14.470;2023-07-13T09:39:13;96845.30;;;29.59;23.38
47082;BME280;33066;49.296;14.470;2023-07-13T09:41:40;96848.34;;;29.73;23.24
47082;BME280;33066;49.296;14.470;2023-07-13T09:46:24;96835.83;;;29.91;22.48
47082;BME280;33066;49.296;14.470;2023-07-13T09:48:50;96830.07;;;29.90;22.10
47082;BME280;33066;49.296;14.470;2023-07-13T09:51:16;96833.69;;;30.00;21.50
47082;BME280;33066;49.296;14.470;2023-07-13T09:53:42;96836.47;;;30.13;21.67
47082;BME280;33066;49.296;14.470;2023-07-13T09:56:19;96841.29;;;30.23;21.67
47082;BME280;33066;49.296;14.470;2023-07-13T09:58:35;96844.05;;;30.31;21.72
47082;BME280;33066;49.296;14.470;2023-07-13T10:01:01;96848.25;;;30.79;21.21
47082;BME280;33066;49.296;14.470;2023-07-13T10:03:26;96841.44;;;30.59;20.73
47082;BME280;33066;49.296;14.470;2023-07-13T10:05:52;96844.36;;;30.54;19.81
47082;BME280;33066;49.296;14.470;2023-07-13T10:08:21;96853.60;;;30.57;20.00
47082;BME280;33066;49.296;14.470;2023-07-13T10:10:42;96847.21;;;30.72;20.02
47082;BME280;33066;49.296;14.470;2023-07-13T10:13:26;96834.16;;;30.70;19.38
47082;BME280;33066;49.296;14.470;2023-07-13T10:15:33;96838.46;;;30.56;19.36
47082;BME280;33066;49.296;14.470;2023-07-13T10:17:59;96844.92;;;30.94;19.47
47082;BME280;33066;49.296;14.470;2023-07-13T10:20:26;96857.06;;;31.00;19.50
47082;BME280;33066;49.296;14.470;2023-07-13T10:22:55;96867.55;;;30.92;19.06
47082;BME280;33066;49.296;14.470;2023-07-13T10:25:18;96865.86;;;31.03;19.14
47082;BME280;33066;49.296;14.470;2023-07-13T10:27:43;96866.90;;;31.08;19.09
47082;BME280;33066;49.296;14.470;2023-07-13T10:30:14;96862.93;;;31.19;19.01
47082;BME280;33066;49.296;14.470;2023-07-13T10:32:34;96871.68;;;31.31;18.77
47082;BME280;33066;49.296;14.470;2023-07-13T10:35:01;96863.98;;;31.59;18.75
47082;BME280;33066;49.296;14.470;2023-07-13T10:37:29;96876.53;;;32.25;18.37
47082;BME280;33066;49.296;14.470;2023-07-13T10:39:54;96860.07;;;32.38;18.41
47082;BME280;33066;49.296;14.470;2023-07-13T10:42:25;96867.17;;;32.37;18.40
47082;BME280;33066;49.296;14.470;2023-07-13T10:44:42;96860.30;;;32.29;18.80
47082;BME280;33066;49.296;14.470;2023-07-13T10:47:14;96857.38;;;32.17;18.59
47082;BME280;33066;49.296;14.470;2023-07-13T10:49:35;96859.00;;;32.53;18.84
47082;BME280;33066;49.296;14.470;2023-07-13T10:52:00;96856.36;;;32.84;18.70
47082;BME280;33066;49.296;14.470;2023-07-13T10:54:30;96864.81;;;32.82;18.26
47082;BME280;33066;49.296;14.470;2023-07-13T10:57:05;96850.82;;;32.82;17.88
47082;BME280;33066;49.296;14.470;2023-07-13T10:59:19;96857.58;;;33.32;17.79
47082;BME280;33066;49.296;14.470;2023-07-13T11:01:52;96845.04;;;33.42;17.82
47082;BME280;33066;49.296;14.470;2023-07-13T11:04:13;96845.98;;;33.49;17.65
47082;BME280;33066;49.296;14.470;2023-07-13T11:06:37;96843.85;;;33.24;17.22
47082;BME280;33066;49.296;14.470;2023-07-13T11:11:36;96839.68;;;33.07;16.94
47082;BME280;33066;49.296;14.470;2023-07-13T11:13:58;96856.34;;;33.45;17.34
47082;BME280;33066;49.296;14.470;2023-07-13T11:18:47;96838.29;;;33.68;17.48
47082;BME280;33066;49.296;14.470;2023-07-13T11:21:15;96833.45;;;33.92;17.40
47082;BME280;33066;49.296;14.470;2023-07-13T11:23:38;96830.13;;;34.06;16.82
47082;BME280;33066;49.296;14.470;2023-07-13T11:25:59;96835.02;;;33.87;17.10
47082;BME280;33066;49.296;14.470;2023-07-13T11:28:26;96841.03;;;33.80;17.17
47082;BME280;33066;49.296;14.470;2023-07-13T11:31:01;96845.72;;;34.24;17.02
47082;BME280;33066;49.296;14.470;2023-07-13T11:33:19;96840.61;;;33.95;16.37
47082;BME280;33066;49.296;14.470;2023-07-13T11:35:46;96849.72;;;34.08;16.70
47082;BME280;33066;49.296;14.470;2023-07-13T11:38:15;96844.37;;;34.34;16.82
47082;BME280;33066;49.296;14.470;2023-07-13T11:40:33;96856.75;;;34.14;16.53
47082;BME280;33066;49.296;14.470;2023-07-13T11:43:00;96848.49;;;34.30;16.22
47082;BME280;33066;49.296;14.470;2023-07-13T11:45:24;96847.92;;;34.68;15.99
47082;BME280;33066;49.296;14.470;2023-07-13T11:47:51;96856.10;;;34.31;16.38
47082;BME280;33066;49.296;14.470;2023-07-13T11:50:19;96849.60;;;34.45;17.10
47082;BME280;33066;49.296;14.470;2023-07-13T11:52:43;96846.34;;;34.08;17.39
47082;BME280;33066;49.296;14.470;2023-07-13T11:55:14;96845.23;;;34.63;16.98
47082;BME280;33066;49.296;14.470;2023-07-13T11:57:36;96839.21;;;34.82;17.30
47082;BME280;33066;49.296;14.470;2023-07-13T12:00:00;96835.35;;;35.34;16.87
47082;BME280;33066;49.296;14.470;2023-07-13T12:02:30;96842.83;;;34.74;16.92
47082;BME280;33066;49.296;14.470;2023-07-13T12:04:52;96851.67;;;35.09;16.97
47082;BME280;33066;49.296;14.470;2023-07-13T12:07:17;96853.33;;;35.31;16.14
47082;BME280;33066;49.296;14.470;2023-07-13T12:09:41;96863.37;;;35.42;15.88
47082;BME280;33066;49.296;14.470;2023-07-13T12:12:11;96857.11;;;34.46;15.97
47082;BME280;33066;49.296;14.470;2023-07-13T12:14:34;96852.66;;;34.03;16.34
47082;BME280;33066;49.296;14.470;2023-07-13T12:16:59;96856.82;;;33.89;16.59
47082;BME280;33066;49.296;14.470;2023-07-13T12:19:26;96854.78;;;33.47;16.35
47082;BME280;33066;49.296;14.470;2023-07-13T12:21:52;96855.48;;;33.39;16.49
47082;BME280;33066;49.296;14.470;2023-07-13T12:24:17;96854.19;;;33.02;16.53
47082;BME280;33066;49.296;14.470;2023-07-13T12:26:41;96854.18;;;32.98;16.86
47082;BME280;33066;49.296;14.470;2023-07-13T12:29:07;96861.26;;;32.52;17.49
47082;BME280;33066;49.296;14.470;2023-07-13T12:31:35;96859.94;;;32.77;17.87
47082;BME280;33066;49.296;14.470;2023-07-13T12:34:01;96865.23;;;32.53;17.99
47082;BME280;33066;49.296;14.470;2023-07-13T12:36:24;96867.92;;;32.09;18.30
47082;BME280;33066;49.296;14.470;2023-07-13T12:38:51;96855.23;;;32.91;18.20
47082;BME280;33066;49.296;14.470;2023-07-13T12:41:15;96863.44;;;33.66;17.85
47082;BME280;33066;49.296;14.470;2023-07-13T12:43:41;96849.26;;;33.81;17.38
47082;BME280;33066;49.296;14.470;2023-07-13T12:46:17;96835.28;;;34.51;17.10
47082;BME280;33066;49.296;14.470;2023-07-13T12:48:38;96824.60;;;34.75;16.94
47082;BME280;33066;49.296;14.470;2023-07-13T12:51:02;96828.30;;;35.48;17.05